VADAR1 LLBG-EGVA
Flight info
| Callsign | VADAR1 |
|---|---|
| Flight time | N/A |
| Altitude | 40000 |
| Route | SUVAS N128 OTHON UN128 RDS UL609 MES UG18 FSK UL608 DISOR DCT UTOMO DCT EDALA DCT ADOMO DCT ERKIR DCT BABEG DCT ADENU L608 DENUT L610 KOPUL Q60 OKSAW |
| Aircraft | B2ST/H-SDE3FGHIM1M2RWXY/LB1 |
Departure
| Time | 2026-05-05 03:21 |
|---|---|
| Airport | Ben Gurion International Airport (LLBG) |
Arrival
| Time | N/A |
|---|---|
| Airport | RAF Fairford (EGVA) |
| Time | Latitude | Longitude | Altitude | Speed | Heading |
|---|---|---|---|---|---|
| 2026-05-05 03:06 | 32.00702 | 34.86849 | 112 ft | 0 kts | 296° |
| 2026-05-05 03:14 | 32.00711 | 34.86845 | 110 ft | 3 kts | 351° |
| 2026-05-05 03:14 | 32.00731 | 34.86868 | 110 ft | 6 kts | 65° |
| 2026-05-05 03:15 | 32.00767 | 34.86948 | 110 ft | 16 kts | 44° |
| 2026-05-05 03:15 | 32.00871 | 34.87063 | 111 ft | 25 kts | 53° |
| 2026-05-05 03:15 | 32.00902 | 34.87247 | 109 ft | 30 kts | 125° |
| 2026-05-05 03:15 | 32.00782 | 34.87476 | 113 ft | 34 kts | 121° |
| 2026-05-05 03:16 | 32.00667 | 34.87693 | 112 ft | 28 kts | 122° |
| 2026-05-05 03:16 | 32.00583 | 34.87861 | 113 ft | 20 kts | 121° |
| 2026-05-05 03:16 | 32.00618 | 34.87943 | 113 ft | 13 kts | 30° |
| 2026-05-05 03:16 | 32.00727 | 34.88018 | 113 ft | 23 kts | 33° |
| 2026-05-05 03:17 | 32.00891 | 34.88137 | 114 ft | 32 kts | 34° |
| 2026-05-05 03:17 | 32.01108 | 34.88286 | 117 ft | 40 kts | 27° |
| 2026-05-05 03:17 | 32.01356 | 34.88492 | 118 ft | 47 kts | 51° |
| 2026-05-05 03:17 | 32.01504 | 34.88864 | 120 ft | 54 kts | 80° |
| 2026-05-05 03:18 | 32.01568 | 34.89327 | 128 ft | 61 kts | 79° |
| 2026-05-05 03:18 | 32.01634 | 34.89668 | 127 ft | 59 kts | 62° |
| 2026-05-05 03:18 | 32.01711 | 34.89759 | 127 ft | 48 kts | 27° |
| 2026-05-05 03:18 | 32.01818 | 34.89947 | 133 ft | 22 kts | 119° |
| 2026-05-05 03:19 | 32.01707 | 34.89952 | 134 ft | 0 kts | 208° |
| 2026-05-05 03:20 | 32.01590 | 34.89875 | 128 ft | 38 kts | 210° |
| 2026-05-05 03:20 | 32.01254 | 34.89657 | 127 ft | 71 kts | 210° |
| 2026-05-05 03:20 | 32.00726 | 34.89319 | 122 ft | 100 kts | 208° |
| 2026-05-05 03:20 | 32.00073 | 34.88834 | 181 ft | 117 kts | 217° |
| 2026-05-05 03:21 | 31.99452 | 34.88170 | 231 ft | 133 kts | 228° |
| 2026-05-05 03:21 | 31.98806 | 34.87297 | 466 ft | 159 kts | 223° |
| 2026-05-05 03:21 | 31.97870 | 34.86306 | 1119 ft | 200 kts | 220° |
| 2026-05-05 03:21 | 31.96671 | 34.85280 | 2269 ft | 221 kts | 216° |
| 2026-05-05 03:22 | 31.95406 | 34.84280 | 3578 ft | 221 kts | 220° |
| 2026-05-05 03:22 | 31.94564 | 34.82813 | 4642 ft | 214 kts | 249° |
| 2026-05-05 03:22 | 31.94508 | 34.81074 | 5760 ft | 216 kts | 280° |
| 2026-05-05 03:22 | 31.95308 | 34.79585 | 6887 ft | 223 kts | 314° |
| 2026-05-05 03:23 | 31.96678 | 34.78764 | 8150 ft | 219 kts | 336° |
| 2026-05-05 03:23 | 31.98032 | 34.77865 | 9116 ft | 228 kts | 328° |
| 2026-05-05 03:23 | 31.99203 | 34.76632 | 9806 ft | 224 kts | 337° |
| 2026-05-05 03:23 | 32.00368 | 34.76019 | 8825 ft | 137 kts | 340° |
| 2026-05-05 03:24 | 32.02065 | 34.76480 | 6856 ft | 280 kts | 5° |
| 2026-05-05 03:24 | 32.03885 | 34.76704 | 8113 ft | 252 kts | 357° |
| 2026-05-05 03:24 | 32.05514 | 34.76634 | 10192 ft | 214 kts | 346° |
| 2026-05-05 03:24 | 32.06779 | 34.76271 | 12151 ft | 161 kts | 326° |
| 2026-05-05 03:25 | 32.07528 | 34.75578 | 13449 ft | 125 kts | 289° |
| 2026-05-05 03:25 | 32.07470 | 34.74492 | 13416 ft | 174 kts | 241° |
| 2026-05-05 03:25 | 32.06317 | 34.73296 | 13090 ft | 245 kts | 227° |
| 2026-05-05 03:25 | 32.05144 | 34.71871 | 14414 ft | 237 kts | 234° |
| 2026-05-05 03:26 | 32.04061 | 34.70432 | 15500 ft | 246 kts | 237° |
| 2026-05-05 03:26 | 32.02933 | 34.68771 | 16009 ft | 272 kts | 239° |
| 2026-05-05 03:26 | 32.02254 | 34.66781 | 16482 ft | 247 kts | 261° |
| 2026-05-05 03:26 | 32.02228 | 34.64720 | 16986 ft | 265 kts | 276° |
| 2026-05-05 03:27 | 32.02981 | 34.62606 | 17524 ft | 300 kts | 299° |
| 2026-05-05 03:27 | 32.04014 | 34.60361 | 17962 ft | 323 kts | 294° |
| 2026-05-05 03:27 | 32.04631 | 34.57728 | 18362 ft | 346 kts | 280° |
| 2026-05-05 03:27 | 32.04687 | 34.55078 | 18707 ft | 368 kts | 267° |
| 2026-05-05 03:28 | 32.04069 | 34.52054 | 19091 ft | 394 kts | 253° |
| 2026-05-05 03:28 | 32.03038 | 34.48972 | 19558 ft | 414 kts | 252° |
| 2026-05-05 03:28 | 32.02571 | 34.45543 | 19977 ft | 435 kts | 264° |
| 2026-05-05 03:28 | 32.02703 | 34.41904 | 20385 ft | 450 kts | 271° |
| 2026-05-05 03:29 | 32.03047 | 34.38267 | 20832 ft | 450 kts | 274° |
| 2026-05-05 03:29 | 32.03503 | 34.34641 | 21327 ft | 446 kts | 276° |
| 2026-05-05 03:29 | 32.04056 | 34.31046 | 21853 ft | 444 kts | 279° |
| 2026-05-05 03:29 | 32.04497 | 34.27445 | 22333 ft | 443 kts | 275° |
| 2026-05-05 03:30 | 32.04737 | 34.23845 | 22877 ft | 441 kts | 272° |
| 2026-05-05 03:30 | 32.05160 | 34.20267 | 23383 ft | 444 kts | 281° |
| 2026-05-05 03:30 | 32.06413 | 34.16911 | 23847 ft | 450 kts | 297° |
| 2026-05-05 03:30 | 32.08270 | 34.13903 | 24309 ft | 456 kts | 305° |
| 2026-05-05 03:31 | 32.10313 | 34.11042 | 24773 ft | 458 kts | 306° |
| 2026-05-05 03:31 | 32.12359 | 34.08202 | 25263 ft | 453 kts | 304° |
| 2026-05-05 03:31 | 32.14128 | 34.05146 | 25468 ft | 448 kts | 295° |
| 2026-05-05 03:31 | 32.15556 | 34.01895 | 25452 ft | 446 kts | 290° |
| 2026-05-05 03:32 | 32.17187 | 33.98742 | 25422 ft | 449 kts | 301° |
| 2026-05-05 03:32 | 32.19132 | 33.95894 | 26430 ft | 444 kts | 301° |
| 2026-05-05 03:32 | 32.20858 | 33.92883 | 27468 ft | 443 kts | 298° |
| 2026-05-05 03:32 | 32.22553 | 33.89881 | 28520 ft | 437 kts | 299° |
| 2026-05-05 03:33 | 32.24354 | 33.86992 | 29622 ft | 435 kts | 300° |
| 2026-05-05 03:33 | 32.26086 | 33.84108 | 30634 ft | 428 kts | 298° |
| 2026-05-05 03:33 | 32.27783 | 33.81230 | 31653 ft | 426 kts | 299° |
| 2026-05-05 03:33 | 32.29511 | 33.78398 | 32658 ft | 423 kts | 300° |
| 2026-05-05 03:34 | 32.31209 | 33.75573 | 33717 ft | 419 kts | 300° |
| 2026-05-05 03:34 | 32.32878 | 33.72774 | 34674 ft | 414 kts | 300° |
| 2026-05-05 03:34 | 32.34517 | 33.70055 | 35600 ft | 408 kts | 299° |
| 2026-05-05 03:34 | 32.36145 | 33.67339 | 36597 ft | 401 kts | 299° |
| 2026-05-05 03:35 | 32.37737 | 33.64674 | 37610 ft | 392 kts | 298° |
| 2026-05-05 03:35 | 32.39296 | 33.62077 | 38679 ft | 382 kts | 298° |
| 2026-05-05 03:35 | 32.40845 | 33.59479 | 39106 ft | 386 kts | 298° |
| 2026-05-05 03:35 | 32.42375 | 33.56909 | 39502 ft | 388 kts | 298° |
| 2026-05-05 03:36 | 32.43952 | 33.54276 | 39757 ft | 396 kts | 298° |
| 2026-05-05 03:36 | 32.45560 | 33.51581 | 39867 ft | 406 kts | 298° |
| 2026-05-05 03:36 | 32.47213 | 33.48806 | 39927 ft | 418 kts | 299° |
| 2026-05-05 03:36 | 32.48918 | 33.45949 | 39962 ft | 431 kts | 299° |
| 2026-05-05 03:37 | 32.52377 | 33.40147 | 39981 ft | 431 kts | 299° |
| 2026-05-05 03:37 | 32.55853 | 33.34294 | 39986 ft | 435 kts | 299° |
| 2026-05-05 03:38 | 32.59338 | 33.28420 | 39984 ft | 437 kts | 299° |
| 2026-05-05 03:38 | 32.62842 | 33.22509 | 39984 ft | 438 kts | 299° |
| 2026-05-05 03:39 | 32.66343 | 33.16588 | 39980 ft | 439 kts | 299° |
| 2026-05-05 03:39 | 32.69851 | 33.10650 | 39986 ft | 440 kts | 299° |
| 2026-05-05 03:40 | 32.73357 | 33.04698 | 40005 ft | 441 kts | 300° |
| 2026-05-05 03:40 | 32.76882 | 32.98720 | 39983 ft | 441 kts | 300° |
| 2026-05-05 03:41 | 32.80394 | 32.92740 | 39982 ft | 442 kts | 300° |
| 2026-05-05 03:41 | 32.83910 | 32.86747 | 39981 ft | 441 kts | 300° |
| 2026-05-05 03:42 | 32.87419 | 32.80764 | 39980 ft | 441 kts | 300° |
| 2026-05-05 03:42 | 32.90913 | 32.74788 | 39980 ft | 442 kts | 300° |
| 2026-05-05 03:43 | 32.94420 | 32.68784 | 39980 ft | 441 kts | 300° |
| 2026-05-05 03:43 | 32.97894 | 32.62826 | 39983 ft | 441 kts | 300° |
| 2026-05-05 03:44 | 33.01394 | 32.56812 | 39980 ft | 442 kts | 300° |
| 2026-05-05 03:44 | 33.04892 | 32.50794 | 39975 ft | 441 kts | 300° |
| 2026-05-05 03:45 | 33.08385 | 32.44775 | 39973 ft | 442 kts | 300° |
| 2026-05-05 03:45 | 33.11879 | 32.38744 | 39977 ft | 442 kts | 300° |